Urucuia, Brazil
Current Conditions -  °F | °C
As of 3:00 PM on Friday 24 Oct 2014 (Local Time) from SBMK Reporting Station
Scattered Clouds Scattered Clouds  
Wind Chill: 91°   Ceiling: Unl
Heat Index: 91°   Visibility: 6mi
Dew Point: 50°   Wind: 9mph
Humidity: 24%   Direction: 30°NNE
Pressure: 29.97"   Gusts: NA
Location:  16.13°S, 45.74°W
Report Text: SBMK 241700Z 03008KT 320V090 9999 SCT045 33/10 Q1015
Loading
Personal Weather Stations






























Interactive Weather Map
Tropical Storm Tracking
New forecast layout! Learn more

10-Day Weather Forecast

Advertisements
Track Severe Weather on mobile